Latest Weather Observations for Samuel Hill

IDQ60801

Issued at 6:06 pm EST Thursday 29 January 2015 (issued every 30 minutes, with the page automatically refreshed every 10 minutes)

About weather observations | Map of weather stations | Latest weather observations for QLD | Other Formats
Station Details ID: 033308 Name: SAMUEL HILL AERO Lat: -22.74 Lon: 150.66 Height: 31.0 m
Data from the previous 72 hours. | See also: Recent months at Samuel Hill
Date/Time
EST
Temp
°C
App
Temp
°C
Dew
Point
Rel
Hum
%
Delta-T
°C
Wind Press
QNH
hPa
Press
MSL
hPa
Rain
since 9 am
mm
Dir
 
Spd
km/h
Gust
km/h
Spd
kts
Gust
kts
29/06:00pm 26.5 28.5 22.3 78 2.8 ESE 15 24 8 13 1005.8 1005.6 1.2
29/05:30pm 26.8 28.0 22.2 76 3.1 SE 19 28 10 15 1005.4 1005.2 1.2
29/05:00pm 27.0 28.2 22.2 75 3.2 SE 19 26 10 14 1005.2 1005.0 1.2
29/04:30pm 26.8 28.3 22.0 75 3.2 ESE 17 26 9 14 1005.1 1004.9 1.2
29/04:00pm 27.9 29.5 22.8 74 3.5 SE 19 28 10 15 1004.9 1004.7 1.2
29/03:30pm 27.0 28.5 22.0 74 3.4 SE 17 28 9 15 1004.8 1004.6 1.2
29/03:00pm 27.6 28.7 22.3 73 3.6 SE 20 33 11 18 1004.9 1004.7 1.2
29/02:30pm 26.9 28.6 22.3 76 3.1 SE 17 30 9 16 1005.0 1004.8 1.0
29/02:00pm 27.0 28.3 22.4 76 3.1 SE 19 30 10 16 1005.0 1004.8 1.0
29/01:30pm 26.4 27.3 22.0 77 3.0 SE 20 32 11 17 1005.4 1005.2 1.0
29/01:00pm 26.0 28.5 22.5 81 2.4 SE 13 20 7 11 1005.7 1005.5 1.0
29/12:41pm 25.5 28.9 23.4 88 1.4 SSE 11 17 6 9 1005.9 1005.7 1.0
29/12:30pm 24.7 27.4 22.9 90 1.2 SE 13 20 7 11 1006.0 1005.8 1.0
29/12:07pm 25.1 28.2 22.8 87 1.6 SSE 11 19 6 10 1006.0 1005.8 0.2
29/12:00pm 25.2 28.2 23.3 89 1.3 SSE 13 20 7 11 1006.1 1005.9 0.2
29/11:36am 25.3 27.4 22.4 84 2.0 SSE 15 28 8 15 1006.2 1006.0 0.2
29/11:30am 26.3 29.0 23.4 84 2.0 SSE 15 26 8 14 1006.3 1006.1 0.2
29/11:00am 25.6 27.5 22.7 84 2.0 SSE 17 28 9 15 1006.3 1006.1 0.2
29/10:50am 26.3 28.5 22.6 80 2.5 SSE 15 22 8 12 1006.3 1006.1 0.0
29/10:48am 26.2 28.6 22.9 82 2.2 SSE 15 24 8 13 1006.3 1006.1 0.0
29/10:30am 25.6 27.1 22.7 84 2.0 SSE 19 32 10 17 1006.3 1006.1 0.0
29/10:09am 25.2 27.0 22.5 85 1.8 SSE 17 28 9 15 1006.3 1006.1 0.0
29/10:06am 25.3 27.3 23.0 87 1.6 SSE 17 26 9 14 1006.3 1006.1 0.0
29/10:00am 24.7 26.9 22.6 88 1.4 SSE 15 24 8 13 1006.3 1006.1 0.0
29/09:45am 24.5 26.1 22.2 87 1.5 SSE 17 28 9 15 1006.3 1006.1 0.0
29/09:30am 24.6 26.3 22.3 87 1.5 SSE 17 28 9 15 1006.2 1006.0 0.0
29/09:15am 24.5 27.1 22.6 89 1.3 SSE 13 19 7 10 1006.2 1006.0 0.0
29/09:00am 24.2 27.1 22.5 90 1.1 SSE 11 22 6 12 1006.3 1006.1 45.6
29/08:31am 23.7 26.7 22.7 94 0.7 S 11 19 6 10 1006.2 1006.0 45.6
29/08:30am 23.7 26.7 22.7 94 0.7 S 11 19 6 10 1006.2 1006.0 45.6
29/08:00am 23.0 26.4 22.0 94 0.7 SSW 7 15 4 8 1005.9 1005.7 45.2
29/07:30am 23.2 25.5 22.0 93 0.8 S 13 20 7 11 1005.7 1005.5 38.2
29/07:04am 23.5 27.1 22.3 93 0.8 SE 7 13 4 7 1005.6 1005.4 37.2
29/07:00am 23.5 26.7 22.3 93 0.8 SSE 9 20 5 11 1005.6 1005.4 37.2
29/06:39am 23.9 25.9 22.3 91 1.1 SSE 15 22 8 12 1005.2 1005.0 35.4
29/06:30am 24.3 26.9 22.7 91 1.1 SSE 13 22 7 12 1005.2 1005.0 35.2
29/06:00am 24.1 27.5 22.7 92 0.9 SSE 9 11 5 6 1004.7 1004.5 35.2
29/05:30am 24.0 27.7 22.6 92 0.9 SE 7 13 4 7 1004.3 1004.1 35.2
29/05:00am 24.1 27.2 22.9 93 0.8 SE 11 15 6 8 1003.8 1003.6 35.2
29/04:30am 23.7 28.0 22.7 94 0.7 SE 4 9 2 5 1003.5 1003.3 35.2
29/04:00am 23.9 27.4 22.9 94 0.7 SSE 9 13 5 7 1003.4 1003.2 35.2
29/03:30am 23.7 27.7 22.7 94 0.7 SSE 6 9 3 5 1003.4 1003.2 35.2
29/03:05am 23.8 27.1 22.6 93 0.8 SSE 9 15 5 8 1003.4 1003.2 35.2
29/03:00am 23.8 27.5 22.6 93 0.8 SSE 7 15 4 8 1003.5 1003.3 35.2
29/02:43am 23.9 27.4 22.9 94 0.7 SSE 9 15 5 8 1003.4 1003.2 34.8
29/02:30am 24.0 27.9 23.0 94 0.7 SE 7 9 4 5 1003.3 1003.1 34.8
29/02:09am 24.1 27.1 22.7 92 0.9 SE 11 17 6 9 1003.6 1003.4 34.8
29/02:00am 23.8 26.7 22.4 92 0.9 SE 11 20 6 11 1003.7 1003.5 34.8
29/01:34am 23.4 26.7 21.8 91 1.1 SSE 7 11 4 6 1003.9 1003.7 34.2
29/01:30am 23.5 26.4 21.8 90 1.1 S 9 13 5 7 1003.9 1003.7 34.0
29/01:21am 23.5 27.0 22.1 92 0.9 S 7 11 4 6 1004.0 1003.8 34.0
29/01:06am 23.6 27.1 22.2 92 0.9 SE 7 9 4 5 1004.0 1003.8 34.0
29/01:00am 23.6 27.1 22.2 92 0.9 ESE 7 11 4 6 1004.0 1003.8 34.0
29/12:58am 23.6 27.1 22.2 92 0.9 E 7 11 4 6 1004.1 1003.9 34.0
29/12:39am 23.2 26.7 21.8 92 0.9 SSE 6 9 3 5 1004.2 1004.0 34.0
29/12:30am 23.0 27.6 21.8 93 0.8 CALM 0 0 0 0 1004.4 1004.2 34.0
 
Date/Time
EST
Temp
°C
App
Temp
°C
Dew
Point
Rel
Hum
%
Delta-T
°C
Wind Press
QNH
hPa
Press
MSL
hPa
Rain
since 9 am
mm
Dir
 
Spd
km/h
Gust
km/h
Spd
kts
Gust
kts
28/11:30pm 22.9 27.4 21.5 92 0.9 CALM 0 6 0 3 1005.0 1004.8 34.0
28/11:00pm 22.5 25.7 21.3 93 0.8 SSE 6 9 3 5 1004.9 1004.7 34.0
28/10:30pm 22.3 26.5 20.9 92 0.9 CALM 0 0 0 0 1005.0 1004.8 34.0
28/10:13pm 22.4 26.6 21.0 92 0.9 CALM 0 6 0 3 1004.9 1004.7 34.0
28/10:00pm 22.3 26.4 20.8 91 1.0 CALM 0 0 0 0 1005.0 1004.8 34.0
28/09:54pm 22.4 26.6 20.9 91 1.0 CALM 0 0 0 0 1004.9 1004.7 34.0
28/09:30pm 22.6 24.9 20.7 89 1.2 S 9 13 5 7 1004.8 1004.6 34.0
28/09:00pm 22.5 25.5 20.8 90 1.1 SE 6 11 3 6 1004.7 1004.5 34.0
28/08:30pm 22.6 25.3 20.7 89 1.2 ESE 7 9 4 5 1004.6 1004.4 34.0
28/08:00pm 23.0 25.4 20.9 88 1.4 S 9 13 5 7 1003.9 1003.7 34.0
28/07:30pm 23.3 25.7 20.8 86 1.6 SSE 9 13 5 7 1003.6 1003.4 34.0
28/07:00pm 23.8 25.0 21.5 87 1.5 ESE 17 30 9 16 1002.9 1002.7 34.0
28/06:58pm 23.8 25.1 21.7 88 1.4 ESE 17 30 9 16 1003.0 1002.8 34.0
28/06:33pm 24.2 25.8 22.1 88 1.4 SE 17 24 9 13 1003.5 1003.3 33.6
28/06:30pm 24.5 26.6 22.4 88 1.4 SE 15 24 8 13 1003.6 1003.4 33.4
28/06:00pm 24.9 27.6 22.8 88 1.4 SE 13 24 7 13 1003.2 1003.0 33.4
28/05:46pm 25.4 27.8 22.9 86 1.7 SE 15 28 8 15 1003.0 1002.8 33.4
28/05:31pm 25.3 28.7 23.4 89 1.3 SSE 11 19 6 10 1002.7 1002.5 33.4
28/05:30pm 25.3 28.7 23.4 89 1.3 SSE 11 19 6 10 1002.7 1002.5 33.4
28/05:00pm 24.3 27.7 22.7 91 1.1 SE 9 15 5 8 1002.4 1002.2 33.4
28/04:30pm 23.9 25.9 22.3 91 1.1 SE 15 24 8 13 1001.9 1001.8 33.4
28/04:00pm 23.8 25.9 22.4 92 0.9 SE 15 20 8 11 1001.7 1001.6 33.4
28/03:57pm 23.8 25.9 22.4 92 0.9 SE 15 22 8 12 1001.5 1001.4 33.4
28/03:49pm 23.8 25.9 22.4 92 0.9 SE 15 26 8 14 1001.6 1001.5 33.4
28/03:30pm 23.9 26.5 22.7 93 0.8 ESE 13 22 7 12 1002.0 1001.9 33.4
28/03:00pm 24.5 28.3 23.5 94 0.7 ESE 9 17 5 9 1002.1 1002.0 32.6
28/02:59pm 24.5 28.2 23.3 93 0.8 ESE 9 17 5 9 1002.1 1002.0 32.6
28/02:48pm 24.7 28.3 23.7 94 0.7 E 11 17 6 9 1002.3 1002.1 32.2
28/02:30pm 24.4 27.3 23.2 93 0.8 ENE 13 20 7 11 1002.3 1002.1 31.2
28/02:16pm 24.8 28.6 23.4 92 1.0 E 9 17 5 9 1002.1 1002.0 30.4
28/02:00pm 24.8 28.1 23.2 91 1.1 E 11 17 6 9 1002.1 1002.0 30.4
28/01:30pm 24.7 28.7 23.7 94 0.7 SE 9 15 5 8 1002.4 1002.2 29.8
28/01:12pm 24.4 27.9 23.5 95 0.6 ESE 11 19 6 10 1002.4 1002.2 29.6
28/01:00pm 23.9 26.6 22.9 94 0.7 ESE 13 20 7 11 1002.5 1002.3 29.0
28/12:59pm 23.9 26.6 22.9 94 0.7 ESE 13 20 7 11 1002.6 1002.4 28.8
28/12:48pm 24.0 27.2 23.0 94 0.7 ESE 11 17 6 9 1002.8 1002.6 26.2
28/12:47pm 23.8 26.9 22.8 94 0.7 ESE 11 17 6 9 1002.8 1002.6 26.0
28/12:30pm 23.8 26.5 22.8 94 0.7 ESE 13 19 7 10 1002.9 1002.7 24.4
28/12:00pm 24.0 26.8 23.0 94 0.7 SE 13 19 7 10 1003.0 1002.8 19.6
28/11:38am 23.7 26.3 22.7 94 0.7 SE 13 17 7 9 1003.2 1003.0 17.8
28/11:37am 23.9 26.6 22.9 94 0.7 SE 13 17 7 9 1003.2 1003.0 17.6
28/11:30am 23.8 26.5 22.8 94 0.7 ESE 13 17 7 9 1003.2 1003.0 16.6
28/11:00am 24.4 27.8 23.4 94 0.7 SE 11 19 6 10 1003.5 1003.3 14.0
28/10:30am 24.8 28.7 23.6 93 0.8 SE 9 17 5 9 1003.2 1003.0 7.4
28/10:00am 24.7 28.5 23.5 93 0.8 SE 9 13 5 7 1003.2 1003.0 4.2
28/09:30am 24.8 29.3 23.6 93 0.8 SE 6 11 3 6 1003.1 1002.9 2.4
28/09:18am 24.9 29.6 23.9 94 0.7 SE 6 13 3 7 1003.2 1003.0 0.4
28/09:00am 24.8 29.2 23.8 94 0.7 E 7 13 4 7 1003.2 1003.0 20.2
28/08:30am 24.2 27.3 22.8 92 0.9 E 11 19 6 10 1002.9 1002.7 19.8
28/08:00am 25.0 28.6 23.1 89 1.3 E 9 17 5 9 1002.7 1002.5 18.2
28/07:56am 25.2 29.0 23.4 90 1.2 E 9 17 5 9 1002.6 1002.4 18.2
28/07:54am 25.2 29.1 23.6 91 1.1 ENE 9 13 5 7 1002.6 1002.4 18.0
28/07:40am 25.3 29.1 23.5 90 1.2 NE 9 13 5 7 1002.6 1002.4 18.0
28/07:30am 25.8 30.3 24.0 90 1.2 SE 7 13 4 7 1002.5 1002.3 17.8
28/07:00am 25.5 30.5 23.9 91 1.1 S 4 9 2 5 1002.1 1002.0 17.8
28/06:30am 24.9 30.6 23.7 93 0.8 CALM 0 0 0 0 1001.9 1001.8 17.8
28/06:00am 24.5 29.9 23.3 93 0.8 CALM 0 0 0 0 1001.5 1001.4 17.8
28/05:30am 24.6 30.0 23.2 92 0.9 CALM 0 4 0 2 1001.4 1001.3 17.8
28/05:00am 25.0 29.3 23.6 92 1.0 SE 7 13 4 7 1001.4 1001.3 17.8
28/04:30am 24.7 28.5 23.5 93 0.8 ESE 9 11 5 6 1000.9 1000.8 17.8
28/04:00am 24.6 28.8 23.4 93 0.8 ESE 7 11 4 6 1000.9 1000.8 17.8
28/03:30am 24.7 30.1 23.3 92 1.0 CALM 0 0 0 0 1001.0 1000.9 17.8
28/03:00am 25.1 29.5 23.5 91 1.1 E 6 9 3 5 1001.3 1001.2 17.8
28/02:30am 25.2 29.5 23.6 91 1.1 ESE 7 11 4 6 1001.4 1001.3 17.8
28/02:00am 25.0 29.9 23.6 92 1.0 ESE 4 9 2 5 1001.5 1001.4 17.8
28/01:30am 24.8 29.0 23.4 92 1.0 ESE 7 9 4 5 1001.7 1001.6 17.8
28/01:00am 25.1 29.6 23.7 92 1.0 ENE 6 13 3 7 1002.1 1002.0 17.8
28/12:30am 25.2 31.2 24.2 94 0.7 CALM 0 6 0 3 1002.9 1002.7 17.8
28/12:00am 25.2 30.7 24.0 93 0.8 SE 2 7 1 4 1003.4 1003.2 17.8
 
Date/Time
EST
Temp
°C
App
Temp
°C
Dew
Point
Rel
Hum
%
Delta-T
°C
Wind Press
QNH
hPa
Press
MSL
hPa
Rain
since 9 am
mm
Dir
 
Spd
km/h
Gust
km/h
Spd
kts
Gust
kts
27/11:30pm 25.4 31.2 24.0 92 1.0 CALM 0 0 0 0 1003.8 1003.6 17.8
27/11:00pm 25.5 30.0 23.7 90 1.2 ESE 6 9 3 5 1004.3 1004.1 17.8
27/10:30pm 25.4 31.4 24.2 93 0.8 CALM 0 0 0 0 1004.4 1004.2 17.8
27/10:00pm 25.3 29.6 24.3 94 0.7 SW 9 13 5 7 1004.2 1004.0 17.8
27/09:30pm 25.1 29.7 24.1 94 0.7 ESE 7 13 4 7 1003.7 1003.5 17.8
27/09:00pm 24.9 29.0 23.9 94 0.7 ESE 9 9 5 5 1004.1 1003.9 17.8
27/08:57pm 24.9 29.4 23.9 94 0.7 ESE 7 9 4 5 1004.2 1004.0 17.8
27/08:34pm 24.9 29.3 23.5 92 1.0 N 6 9 3 5 1004.6 1004.4 17.6
27/08:30pm 24.8 29.2 23.4 92 1.0 NNE 6 9 3 5 1004.5 1004.3 17.4
27/08:03pm 25.4 28.9 23.6 90 1.2 SSE 11 19 6 10 1004.5 1004.3 7.0
27/08:00pm 25.6 29.1 23.5 88 1.4 SE 11 17 6 9 1004.3 1004.1 4.0
27/07:54pm 26.5 30.3 23.4 83 2.1 ESE 9 17 5 9 1004.0 1003.8 0.6
27/07:30pm 26.7 31.3 23.8 84 2.0 SE 6 9 3 5 1003.3 1003.1 0.0
27/07:00pm 26.6 30.1 23.5 83 2.1 E 11 19 6 10 1002.6 1002.4 0.0
27/06:30pm 27.6 32.3 24.0 81 2.5 E 6 9 3 5 1002.5 1002.3 0.0
27/06:00pm 27.8 32.4 24.2 81 2.5 ENE 7 15 4 8 1002.4 1002.2 0.0
27/05:30pm 27.9 31.2 23.9 79 2.8 ESE 13 22 7 12 1001.8 1001.7 0.0
27/05:00pm 28.8 32.3 23.5 73 3.7 ENE 11 22 6 12 1001.4 1001.3 0.0
27/04:30pm 29.3 32.0 23.5 71 4.0 ENE 15 24 8 13 1001.4 1001.3 0.0
27/04:00pm 29.6 31.4 23.3 69 4.3 E 19 26 10 14 1001.2 1001.1 0.0
27/03:30pm 30.4 32.4 23.6 67 4.7 ENE 19 26 10 14 1001.4 1001.3 0.0
27/03:00pm 29.3 32.0 23.5 71 4.0 ENE 15 22 8 12 1001.8 1001.7 0.0
27/02:30pm 29.7 32.4 22.9 67 4.7 E 13 22 7 12 1001.9 1001.8 0.0
27/02:00pm 31.1 33.9 23.7 64 5.1 ESE 15 22 8 12 1002.0 1001.9 0.0
27/01:30pm 30.4 33.2 24.3 70 4.3 E 17 26 9 14 1002.5 1002.3 0.0
27/01:00pm 29.5 32.4 23.9 72 3.9 SE 15 24 8 13 1003.0 1002.8 0.0
27/12:30pm 30.1 33.0 23.8 69 4.4 ESE 15 26 8 14 1003.2 1003.0 0.0
27/12:00pm 30.3 32.3 23.0 65 5.0 ESE 17 24 9 13 1003.5 1003.3 0.0
27/11:30am 31.5 33.3 23.3 61 5.7 E 19 30 10 16 1003.7 1003.5 0.0
27/11:00am 30.6 31.6 22.2 61 5.7 ENE 20 32 11 17 1004.1 1003.9 0.0
27/10:30am 31.5 34.2 24.1 65 5.2 E 17 24 9 13 1004.3 1004.1 0.0
27/10:00am 30.7 33.8 24.1 68 4.6 ESE 15 20 8 11 1004.4 1004.2 0.0
27/09:30am 30.8 34.4 23.7 66 4.9 ESE 11 19 6 10 1004.4 1004.2 0.0
27/09:00am 29.3 32.4 24.2 74 3.6 SE 15 22 8 12 1004.6 1004.4 4.0
27/08:30am 28.5 32.6 24.5 79 2.8 SSE 11 17 6 9 1004.4 1004.2 4.0
27/08:00am 29.0 33.9 25.2 80 2.7 SE 9 13 5 7 1004.6 1004.4 4.0
27/07:30am 26.9 32.4 24.7 88 1.5 S 4 11 2 6 1004.6 1004.4 4.0
27/07:00am 25.0 29.7 24.0 94 0.7 SSE 6 9 3 5 1004.3 1004.1 4.0
27/06:30am 24.5 30.1 23.6 95 0.6 CALM 0 6 0 3 1004.0 1003.8 4.0
27/06:00am 23.8 29.0 22.9 95 0.6 CALM 0 0 0 0 1003.8 1003.6 4.0
27/05:30am 23.6 28.7 22.6 94 0.7 CALM 0 0 0 0 1003.5 1003.3 4.0
27/05:00am 23.4 28.3 22.4 94 0.7 CALM 0 0 0 0 1003.3 1003.1 4.0
27/04:30am 23.7 28.8 22.7 94 0.7 CALM 0 0 0 0 1003.6 1003.4 4.0
27/04:00am 23.7 28.7 22.5 93 0.8 CALM 0 0 0 0 1003.4 1003.2 4.0
27/03:30am 23.8 28.5 22.6 93 0.8 SSW 2 7 1 4 1003.8 1003.6 4.0
27/03:00am 23.9 29.0 22.7 93 0.8 CALM 0 6 0 3 1003.3 1003.1 4.0
27/02:30am 24.1 29.2 22.7 92 0.9 CALM 0 0 0 0 1003.1 1002.9 4.0
27/02:00am 24.4 29.7 23.0 92 0.9 CALM 0 7 0 4 1003.2 1003.0 4.0
27/01:30am 24.6 29.1 23.0 91 1.1 SW 4 9 2 5 1003.5 1003.3 4.0
27/01:00am 25.2 29.9 23.4 90 1.2 SSE 4 7 2 4 1003.3 1003.1 4.0
27/12:50am 25.5 31.4 24.1 92 1.0 CALM 0 4 0 2 1003.6 1003.4 4.0
27/12:30am 25.6 30.3 24.0 91 1.1 SSE 6 11 3 6 1004.2 1004.0 4.0
27/12:26am 25.6 29.4 24.0 91 1.1 SSE 11 24 6 13 1004.4 1004.2 4.0
27/12:00am 25.5 31.5 24.3 93 0.8 CALM 0 0 0 0 1004.8 1004.6 4.0
 
Date/Time
EST
Temp
°C
App
Temp
°C
Dew
Point
Rel
Hum
%
Delta-T
°C
Wind Press
QNH
hPa
Press
MSL
hPa
Rain
since 9 am
mm
Dir
 
Spd
km/h
Gust
km/h
Spd
kts
Gust
kts
26/11:30pm 25.5 31.4 24.1 92 1.0 CALM 0 0 0 0 1005.1 1004.9 4.0
26/11:00pm 25.8 31.5 24.4 92 1.0 S 2 7 1 4 1005.2 1005.0 4.0
26/10:30pm 25.6 31.6 24.2 92 1.0 CALM 0 0 0 0 1005.0 1004.8 4.0
26/10:00pm 25.8 31.9 24.4 92 1.0 CALM 0 0 0 0 1005.0 1004.8 4.0
26/09:30pm 25.9 31.9 24.3 91 1.1 CALM 0 0 0 0 1004.6 1004.4 4.0
26/09:00pm 26.3 32.4 24.5 90 1.3 CALM 0 0 0 0 1004.6 1004.4 4.0
26/08:30pm 26.7 33.0 24.7 89 1.4 CALM 0 0 0 0 1004.4 1004.2 4.0
26/08:00pm 26.9 33.3 24.9 89 1.4 CALM 0 0 0 0 1004.3 1004.1 4.0
26/07:30pm 27.4 33.7 24.8 86 1.8 CALM 0 4 0 2 1004.3 1004.1 4.0
26/07:00pm 27.8 33.6 24.6 83 2.2 NE 2 6 1 3 1004.2 1004.0 4.0
26/06:30pm 28.5 33.9 24.5 79 2.8 ENE 4 9 2 5 1004.0 1003.8 4.0

Other Formats:

Comma delimited format used in spreadsheet applications
http://www.bom.gov.au/fwo/IDQ60801/IDQ60801.94370.axf

JavaScript Object Notation format (JSON) in row-major order
http://www.bom.gov.au/fwo/IDQ60801/IDQ60801.94370.json